Time;durP1;ratioP1;P1;durP2;ratioP2;P2;SDS_P1;SDS_P2;PMS_P1;PMS_P2;Temp;Humidity;BMP_temperature;BMP_pressure;BME280_temperature;BME280_humidity;BME280_pressure;Samples;Min_cycle;Max_cycle;Signal;HPM_P1;HPM_P2
2022/03/22 00:00:10;;;;;;;40.40;24.38;;;;;;;9.31;66.81;102974.56;5073219;28;20036;-82
2022/03/22 00:02:38;;;;;;;33.83;22.77;;;;;;;9.30;66.69;102982.44;5073418;28;20111;-81
2022/03/22 00:05:05;;;;;;;42.63;24.55;;;;;;;9.25;66.96;102977.13;5072913;28;20120;-82
2022/03/22 00:07:31;;;;;;;36.83;23.25;;;;;;;9.25;66.83;102979.75;5072437;28;20070;-82
2022/03/22 00:09:57;;;;;;;36.17;23.20;;;;;;;9.21;66.57;102977.91;5069373;28;20127;-82
2022/03/22 00:12:23;;;;;;;37.90;22.95;;;;;;;9.21;67.07;102984.09;5060482;28;20447;-82
2022/03/22 00:14:49;;;;;;;35.65;23.55;;;;;;;9.12;67.02;102975.09;5050558;28;20131;-82
2022/03/22 00:17:14;;;;;;;38.90;24.17;;;;;;;9.10;68.22;102979.47;5055706;28;20173;-81
2022/03/22 00:19:41;;;;;;;38.05;23.83;;;;;;;9.04;67.38;102978.47;5073691;28;20505;-82
2022/03/22 00:22:06;;;;;;;40.90;23.60;;;;;;;9.01;67.13;102985.47;5037768;28;20036;-82
2022/03/22 00:24:33;;;;;;;41.25;23.98;;;;;;;8.94;67.13;102973.00;5050462;28;20108;-81
2022/03/22 00:26:58;;;;;;;44.35;24.55;;;;;;;8.88;67.50;102975.50;5076920;28;20356;-82
2022/03/22 00:29:24;;;;;;;43.58;25.58;;;;;;;8.86;68.20;102979.91;5068343;28;20047;-82
2022/03/22 00:31:49;;;;;;;40.38;24.23;;;;;;;8.86;67.26;102980.78;5058491;28;20028;-81
2022/03/22 00:34:15;;;;;;;43.33;25.17;;;;;;;8.80;67.32;102978.94;5050413;28;20032;-81
2022/03/22 00:36:41;;;;;;;39.85;23.67;;;;;;;8.78;67.67;102983.28;5050861;28;20036;-82
2022/03/22 00:39:07;;;;;;;50.13;23.77;;;;;;;8.70;67.54;102982.22;5067774;28;20052;-82
2022/03/22 00:41:33;;;;;;;40.88;24.10;;;;;;;8.70;68.10;102986.63;5051971;28;20127;-82
2022/03/22 00:43:59;;;;;;;42.13;24.98;;;;;;;8.64;68.90;102983.88;5055026;28;20563;-82
2022/03/22 00:46:24;;;;;;;41.50;24.92;;;;;;;8.59;69.08;102983.75;5071277;28;20037;-82
2022/03/22 00:48:50;;;;;;;40.95;25.55;;;;;;;8.56;69.01;102989.88;5066277;28;20033;-82
2022/03/22 00:51:16;;;;;;;41.00;26.55;;;;;;;8.55;69.17;102985.44;5073289;28;20412;-82
2022/03/22 00:53:42;;;;;;;40.38;24.90;;;;;;;8.50;69.04;102994.13;5041544;28;20109;-82
2022/03/22 00:56:08;;;;;;;32.80;20.00;;;;;;;8.48;67.11;102988.84;5051571;28;20048;-82
2022/03/22 00:58:34;;;;;;;43.80;24.85;;;;;;;8.47;70.17;102988.78;5050460;28;20503;-81
2022/03/22 01:01:01;;;;;;;44.00;26.08;;;;;;;8.47;69.76;102986.16;5076658;28;20166;-82
2022/03/22 01:03:28;;;;;;;38.70;24.80;;;;;;;8.47;69.23;102991.44;5062372;28;20131;-82
2022/03/22 01:05:54;;;;;;;40.60;24.05;;;;;;;8.47;69.47;102988.78;5056291;28;20100;-82
2022/03/22 01:08:20;;;;;;;44.17;25.95;;;;;;;8.45;70.24;102987.84;5066830;28;20732;-82
2022/03/22 01:10:52;;;;;;;42.58;24.88;;;;;;;8.43;69.50;102992.22;5049701;28;20064;-82
2022/03/22 01:13:24;;;;;;;39.58;25.42;;;;;;;8.37;68.07;102985.03;5035846;28;20446;-81
2022/03/22 01:15:50;;;;;;;41.03;24.30;;;;;;;8.34;69.39;102983.22;5062663;28;20115;-82
2022/03/22 01:18:16;;;;;;;41.30;25.35;;;;;;;8.29;69.21;102984.88;5066832;28;20108;-82
2022/03/22 01:20:44;;;;;;;43.40;24.33;;;;;;;8.24;69.66;102983.00;5072477;28;20078;-82
2022/03/22 01:23:10;;;;;;;36.75;23.55;;;;;;;8.20;68.91;102992.56;5075221;28;20025;-82
2022/03/22 01:25:38;;;;;;;42.45;24.33;;;;;;;8.17;69.92;102996.03;5075105;28;20031;-81
2022/03/22 01:28:07;;;;;;;40.80;23.75;;;;;;;8.12;68.88;102991.50;5072716;28;20040;-82
2022/03/22 01:30:33;;;;;;;44.20;25.08;;;;;;;8.10;70.83;102993.22;5056730;28;20452;-82
2022/03/22 01:32:59;;;;;;;45.30;24.58;;;;;;;8.07;70.16;102993.16;5020804;28;20094;-82
2022/03/22 01:35:26;;;;;;;38.90;24.38;;;;;;;8.07;70.13;102988.78;5076023;28;20041;-82
2022/03/22 01:37:55;;;;;;;39.65;24.70;;;;;;;8.04;71.17;102993.09;5049230;28;20448;-82
2022/03/22 01:40:25;;;;;;;49.28;26.40;;;;;;;8.02;70.89;102985.13;5067957;28;20036;-82
2022/03/22 01:42:51;;;;;;;39.85;25.00;;;;;;;8.00;70.31;102994.75;5067684;28;20044;-82
2022/03/22 01:45:17;;;;;;;40.22;25.10;;;;;;;7.98;71.59;102993.81;5070288;28;20031;-82
2022/03/22 01:47:44;;;;;;;39.75;25.58;;;;;;;7.96;70.64;102992.88;5045820;28;20028;-83
2022/03/22 01:50:14;;;;;;;42.42;25.20;;;;;;;7.93;71.12;102991.06;5048781;28;20081;-83
2022/03/22 01:52:42;;;;;;;38.08;24.25;;;;;;;7.91;69.74;102990.16;5074292;28;20029;-83
2022/03/22 01:55:09;;;;;;;40.78;24.88;;;;;;;7.89;71.56;102993.63;5080774;28;20040;-83
2022/03/22 01:57:36;;;;;;;40.97;23.35;;;;;;;7.85;71.02;102994.41;5052734;28;20027;-83
2022/03/22 02:00:09;;;;;;;44.05;25.52;;;;;;;7.82;70.94;102984.66;5059852;28;20076;-83
2022/03/22 02:08:13;;;;;;;37.80;23.30;;;;;;;7.75;70.84;102982.75;5071021;28;20080;-82
2022/03/22 02:10:39;;;;;;;40.40;23.70;;;;;;;7.73;71.52;102989.72;5071470;28;20050;-83
2022/03/22 02:13:05;;;;;;;40.35;23.20;;;;;;;7.72;71.50;102982.66;5057035;28;20032;-83
2022/03/22 02:15:31;;;;;;;39.45;23.42;;;;;;;7.70;72.01;102985.25;5075046;28;20081;-83
2022/03/22 02:17:57;;;;;;;37.20;21.92;;;;;;;7.67;71.96;102987.81;5074989;28;20047;-83
2022/03/22 02:20:23;;;;;;;36.38;23.13;;;;;;;7.68;71.17;102986.06;5064312;28;20041;-83
2022/03/22 02:23:12;;;;;;;34.08;21.38;;;;;;;7.67;70.61;102979.03;5054731;28;20048;-83
2022/03/22 02:25:38;;;;;;;36.88;20.50;;;;;;;7.65;71.42;102980.72;5082424;28;20032;-83
2022/03/22 02:28:04;;;;;;;32.92;21.15;;;;;;;7.63;71.19;102982.44;5074442;28;20312;-83
2022/03/22 02:30:31;;;;;;;35.40;22.08;;;;;;;7.61;72.27;102986.78;5074970;28;20036;-83
2022/03/22 02:33:01;;;;;;;37.75;21.73;;;;;;;7.54;71.57;102973.47;5078667;28;20016;-83
2022/03/22 02:35:28;;;;;;;36.58;20.92;;;;;;;7.53;71.57;102976.94;5070705;28;20032;-83
2022/03/22 02:37:54;;;;;;;27.73;18.83;;;;;;;7.50;70.76;102982.13;5068892;28;20097;-83
2022/03/22 02:40:20;;;;;;;38.95;21.70;;;;;;;7.48;71.87;102985.59;5071972;28;20051;-83
2022/03/22 02:42:50;;;;;;;35.90;20.33;;;;;;;7.47;71.70;102984.69;5073160;28;20430;-83
2022/03/22 02:45:23;;;;;;;36.38;21.80;;;;;;;7.45;71.58;102983.75;5053802;28;20044;-83
2022/03/22 02:47:50;;;;;;;36.97;20.70;;;;;;;7.46;72.51;102989.91;5073663;28;20549;-82
2022/03/22 02:50:16;;;;;;;33.70;19.95;;;;;;;7.44;71.25;102984.63;5053067;28;20028;-82
2022/03/22 02:52:42;;;;;;;31.42;20.88;;;;;;;7.39;70.95;102975.69;5071845;28;20108;-82
2022/03/22 02:55:09;;;;;;;39.38;20.98;;;;;;;7.39;71.73;102980.94;5076101;28;20110;-83
2022/03/22 02:57:37;;;;;;;32.95;20.75;;;;;;;7.35;72.31;102981.75;5056464;28;20069;-82
2022/03/22 03:00:12;;;;;;;32.42;19.67;;;;;;;7.31;71.39;102985.16;5053977;28;20041;-82
2022/03/22 03:02:49;;;;;;;32.35;20.13;;;;;;;7.26;71.75;102982.38;5069832;28;20041;-82
2022/03/22 03:05:15;;;;;;;29.45;18.55;;;;;;;7.22;71.31;102990.16;5072712;28;20035;-82
2022/03/22 03:07:41;;;;;;;30.52;19.90;;;;;;;7.17;71.35;102990.06;5053303;28;20063;-82
2022/03/22 03:10:08;;;;;;;33.58;20.67;;;;;;;7.14;72.49;102986.44;5071742;28;20040;-82
2022/03/22 03:12:35;;;;;;;33.92;20.45;;;;;;;7.06;71.99;102980.97;5072212;28;20024;-82
2022/03/22 03:15:01;;;;;;;31.92;20.55;;;;;;;7.03;72.80;102981.78;5053701;28;20031;-82
2022/03/22 03:17:27;;;;;;;35.38;20.27;;;;;;;7.02;71.73;102987.00;5067242;28;20029;-82
2022/03/22 03:19:53;;;;;;;35.13;19.73;;;;;;;7.00;72.59;102983.47;5065025;28;20395;-82
2022/03/22 03:22:19;;;;;;;32.58;20.23;;;;;;;6.98;73.21;102987.78;5072278;28;20055;-82
2022/03/22 03:24:45;;;;;;;32.17;19.80;;;;;;;6.97;73.15;102978.97;5052619;28;20436;-82
2022/03/22 03:27:10;;;;;;;28.30;17.95;;;;;;;6.93;71.81;102984.13;5072426;28;20037;-82
2022/03/22 03:29:36;;;;;;;29.73;17.77;;;;;;;6.91;71.54;102985.84;5058762;28;20033;-82
2022/03/22 03:32:02;;;;;;;35.17;19.35;;;;;;;6.89;72.54;102989.28;5053577;28;20040;-82
2022/03/22 03:34:27;;;;;;;33.17;19.33;;;;;;;6.86;72.32;102985.69;5053512;28;20036;-82
2022/03/22 03:36:53;;;;;;;31.30;19.60;;;;;;;6.83;73.07;102990.88;5070484;28;20097;-82
2022/03/22 03:39:19;;;;;;;30.17;20.10;;;;;;;6.79;73.08;102996.91;5073563;28;20032;-82
2022/03/22 03:41:53;;;;;;;29.05;19.13;;;;;;;6.72;72.25;102993.19;5073811;28;20374;-81
2022/03/22 03:47:13;;;;;;;29.10;18.13;;;;;;;6.67;72.27;103000.97;5085878;28;20110;-82
2022/03/22 03:49:44;;;;;;;31.27;19.45;;;;;;;6.64;73.06;103005.25;5037201;28;20024;-82
2022/03/22 03:52:18;;;;;;;36.22;19.83;;;;;;;6.62;73.59;103010.47;5053416;28;20511;-82
2022/03/22 03:54:45;;;;;;;30.70;19.42;;;;;;;6.57;72.55;103005.94;5053199;28;20115;-82
2022/03/22 03:57:12;;;;;;;30.08;16.50;;;;;;;6.60;70.81;103006.00;5053153;28;20016;-81
2022/03/22 03:59:38;;;;;;;35.78;19.02;;;;;;;6.59;74.16;103012.13;5036454;28;20037;-81
2022/03/22 04:02:08;;;;;;;33.42;19.38;;;;;;;6.57;73.56;103016.47;5036556;28;20040;-81
2022/03/22 04:04:35;;;;;;;33.83;16.98;;;;;;;6.53;71.82;103007.59;5036444;28;20040;-81
2022/03/22 04:07:05;;;;;;;32.83;17.90;;;;;;;6.52;74.01;103012.81;5052831;28;20151;-81
2022/03/22 04:09:32;;;;;;;32.10;18.92;;;;;;;6.50;73.45;103009.22;5036721;28;20499;-81
2022/03/22 04:11:57;;;;;;;29.77;18.95;;;;;;;6.48;73.33;103022.34;5036444;28;20119;-81
2022/03/22 04:14:23;;;;;;;28.45;18.58;;;;;;;6.46;73.57;103014.41;5071072;28;20384;-81
2022/03/22 04:16:50;;;;;;;31.83;17.50;;;;;;;6.44;74.16;103018.72;5035997;28;20418;-81
2022/03/22 04:19:16;;;;;;;35.92;18.45;;;;;;;6.44;73.93;103020.47;5048616;28;20032;-81
2022/03/22 04:21:42;;;;;;;32.83;19.20;;;;;;;6.41;73.96;103029.16;5069295;28;20052;-81
2022/03/22 04:24:11;;;;;;;27.13;19.30;;;;;;;6.40;74.26;103026.47;5053023;28;20129;-81
2022/03/22 04:26:43;;;;;;;33.78;18.50;;;;;;;6.36;74.33;103022.00;5089681;28;20027;-81
2022/03/22 04:34:39;;;;;;;27.65;18.77;;;;;;;6.33;74.25;103025.41;5089005;28;20141;-81
2022/03/22 04:37:06;;;;;;;30.10;18.80;;;;;;;6.30;73.70;103022.66;5083830;28;20044;-81
2022/03/22 04:39:33;;;;;;;33.78;18.13;;;;;;;6.29;74.09;103030.53;5069302;28;20461;-81
2022/03/22 04:42:00;;;;;;;32.13;18.65;;;;;;;6.24;74.48;103026.00;5036038;28;20205;-81
2022/03/22 04:44:29;;;;;;;32.25;17.98;;;;;;;6.21;74.47;103025.94;5070454;28;20406;-81
2022/03/22 04:46:58;;;;;;;28.70;17.67;;;;;;;6.16;74.52;103029.28;5052616;28;20555;-81
2022/03/22 04:49:27;;;;;;;29.90;18.52;;;;;;;6.12;75.00;103024.75;5019455;28;20036;-81
2022/03/22 04:57:23;;;;;;;31.52;19.33;;;;;;;6.04;74.03;103032.38;5089002;28;20036;-81
2022/03/22 04:59:49;;;;;;;29.40;18.27;;;;;;;5.97;73.99;103025.16;5090584;28;20055;-81
2022/03/22 05:02:15;;;;;;;36.40;19.33;;;;;;;5.93;74.21;103031.09;5072138;28;20032;-81
2022/03/22 05:04:41;;;;;;;28.33;18.48;;;;;;;5.88;74.24;103033.59;5072581;28;20027;-81
2022/03/22 05:07:07;;;;;;;29.77;17.30;;;;;;;5.89;74.50;103040.66;5072229;28;20079;-81
2022/03/22 05:09:33;;;;;;;35.85;18.63;;;;;;;5.87;74.39;103042.31;5055775;28;20063;-81
2022/03/22 05:11:59;;;;;;;32.65;18.88;;;;;;;5.87;74.59;103044.97;5055761;28;20047;-81
2022/03/22 05:14:25;;;;;;;30.58;19.42;;;;;;;5.87;75.34;103044.97;5072333;28;20363;-81
2022/03/22 05:16:51;;;;;;;30.45;19.35;;;;;;;5.89;75.71;103048.53;5072269;28;20032;-81
2022/03/22 05:19:18;;;;;;;32.13;19.90;;;;;;;5.91;75.62;103052.13;5070575;28;20590;-81
2022/03/22 05:21:44;;;;;;;38.58;19.98;;;;;;;5.94;75.84;103051.34;5076526;28;20041;-81
2022/03/22 05:24:10;;;;;;;28.88;19.23;;;;;;;5.92;75.83;103056.53;5051963;28;20464;-81
2022/03/22 05:26:36;;;;;;;29.00;19.73;;;;;;;5.96;76.06;103054.91;5035363;28;20040;-80
2022/03/22 05:29:04;;;;;;;28.98;18.50;;;;;;;5.96;75.12;103061.09;5070141;28;20029;-81
2022/03/22 05:31:31;;;;;;;37.97;20.00;;;;;;;5.96;75.92;103054.91;5035519;28;20063;-81
2022/03/22 05:34:01;;;;;;;28.40;18.25;;;;;;;6.01;74.85;103064.75;5051962;28;20502;-81
2022/03/22 05:36:27;;;;;;;32.80;19.20;;;;;;;6.00;74.63;103056.81;5069753;28;20131;-81
2022/03/22 05:38:53;;;;;;;31.77;19.13;;;;;;;6.02;75.00;103063.91;5071678;28;20118;-80
2022/03/22 05:41:19;;;;;;;29.23;19.38;;;;;;;6.04;75.67;103071.84;5055265;28;20504;-81
2022/03/22 05:43:45;;;;;;;30.25;19.55;;;;;;;6.02;75.62;103068.28;5089943;28;20025;-81
2022/03/22 05:46:11;;;;;;;33.22;18.73;;;;;;;6.03;75.03;103065.69;5071469;28;20482;-81
2022/03/22 05:48:39;;;;;;;28.48;19.17;;;;;;;6.02;74.98;103063.00;5074704;28;20402;-81
2022/03/22 05:51:06;;;;;;;31.05;19.85;;;;;;;6.03;74.92;103072.66;5092294;28;20043;-81
2022/03/22 05:53:32;;;;;;;34.53;20.27;;;;;;;6.03;75.90;103072.66;5075419;28;20034;-81
2022/03/22 05:55:57;;;;;;;31.33;18.48;;;;;;;6.03;74.78;103067.41;5075477;28;20163;-81
2022/03/22 05:58:23;;;;;;;32.17;19.65;;;;;;;6.02;74.91;103065.63;5075039;28;20043;-81
2022/03/22 06:00:49;;;;;;;25.45;16.85;;;;;;;6.01;74.00;103066.50;5058662;28;20469;-81
2022/03/22 06:03:15;;;;;;;31.58;19.55;;;;;;;6.01;75.13;103067.38;5041653;28;20040;-81
2022/03/22 06:05:42;;;;;;;33.42;19.48;;;;;;;6.00;74.74;103062.06;5075238;28;20151;-81
2022/03/22 06:08:08;;;;;;;31.73;19.17;;;;;;;6.01;74.71;103072.63;5055984;28;20163;-81
2022/03/22 06:10:34;;;;;;;27.33;16.63;;;;;;;6.03;74.39;103083.19;5035241;28;20468;-80
2022/03/22 06:13:00;;;;;;;28.25;19.23;;;;;;;6.01;75.14;103072.63;5018734;28;20056;-80
2022/03/22 06:15:28;;;;;;;31.92;18.35;;;;;;;6.02;73.28;103078.78;5051521;28;20009;-80
2022/03/22 06:17:56;;;;;;;34.70;19.98;;;;;;;6.01;75.49;103077.91;5046907;28;20044;-80
2022/03/22 06:20:26;;;;;;;33.42;18.88;;;;;;;6.05;75.56;103080.63;5049996;28;20115;-81
2022/03/22 06:22:52;;;;;;;35.75;20.90;;;;;;;6.06;75.06;103080.69;5031507;28;20127;-81
2022/03/22 06:25:19;;;;;;;30.23;19.98;;;;;;;6.10;75.56;103076.41;5040288;28;20120;-81
2022/03/22 06:27:48;;;;;;;29.25;19.70;;;;;;;6.15;74.90;103085.34;5018405;28;20457;-81
2022/03/22 06:30:16;;;;;;;37.33;21.77;;;;;;;6.19;75.99;103085.50;5068449;28;20033;-81
2022/03/22 06:32:54;;;;;;;42.92;22.05;;;;;;;6.22;75.23;103082.06;5051410;28;20055;-81
2022/03/22 06:35:22;;;;;;;38.65;21.98;;;;;;;6.28;74.84;103090.16;5053004;28;20037;-81
2022/03/22 06:37:49;;;;;;;36.97;19.27;;;;;;;6.35;75.24;103092.13;5040239;28;20051;-81
2022/03/22 06:40:17;;;;;;;36.95;19.85;;;;;;;6.39;74.25;103082.59;5033101;28;20021;-81
2022/03/22 06:42:43;;;;;;;35.88;21.23;;;;;;;6.46;75.04;103080.22;5047840;28;20149;-81
2022/03/22 06:45:10;;;;;;;32.60;20.73;;;;;;;6.53;73.95;103085.66;5031314;28;20397;-81
2022/03/22 06:47:36;;;;;;;31.05;20.10;;;;;;;6.60;74.06;103085.00;5031248;28;20021;-80
2022/03/22 06:50:03;;;;;;;40.22;21.08;;;;;;;6.65;74.28;103083.38;5047819;28;20515;-81
2022/03/22 06:52:28;;;;;;;32.08;20.45;;;;;;;6.72;73.47;103092.38;5032645;28;20037;-81
2022/03/22 06:54:54;;;;;;;28.67;21.27;;;;;;;6.79;73.57;103089.97;5017522;28;20041;-80
2022/03/22 06:57:19;;;;;;;36.88;20.45;;;;;;;6.85;73.32;103090.16;5032204;28;20497;-81
2022/03/22 06:59:45;;;;;;;32.65;20.67;;;;;;;6.93;72.96;103098.28;5034055;28;20033;-81
2022/03/22 07:02:11;;;;;;;36.53;20.33;;;;;;;7.00;73.75;103096.75;5031052;28;20073;-81
2022/03/22 07:04:37;;;;;;;35.92;20.15;;;;;;;7.07;72.66;103101.31;5030782;28;20124;-81
2022/03/22 07:07:03;;;;;;;32.63;21.52;;;;;;;7.13;72.04;103096.22;5031970;28;20053;-81
2022/03/22 07:09:28;;;;;;;31.40;20.15;;;;;;;7.20;72.11;103103.47;5053854;28;20039;-81
2022/03/22 07:11:56;;;;;;;34.40;20.20;;;;;;;7.28;71.41;103106.31;5034741;28;20079;-81
2022/03/22 07:14:27;;;;;;;36.60;21.23;;;;;;;7.35;71.06;103110.03;5050889;28;20029;-81
2022/03/22 07:16:53;;;;;;;38.60;21.27;;;;;;;7.41;71.78;103110.16;5067807;28;20040;-81
2022/03/22 07:19:20;;;;;;;36.85;19.60;;;;;;;7.47;70.98;103105.09;5058843;28;20275;-81
2022/03/22 07:21:47;;;;;;;33.72;20.98;;;;;;;7.54;70.62;103101.72;5056425;28;20043;-81
2022/03/22 07:24:15;;;;;;;44.65;22.17;;;;;;;7.61;69.26;103102.81;5051183;28;20446;-81
2022/03/22 07:26:41;;;;;;;35.00;20.42;;;;;;;7.68;70.16;103110.03;5072318;28;20093;-81
2022/03/22 07:29:07;;;;;;;34.58;21.13;;;;;;;7.74;69.67;103100.53;5037608;28;20048;-82
2022/03/22 07:31:38;;;;;;;35.78;20.75;;;;;;;7.82;70.05;103111.28;5053948;28;20044;-82
2022/03/22 07:34:09;;;;;;;33.83;19.33;;;;;;;7.88;69.67;103111.44;5070364;28;20123;-82
2022/03/22 07:36:39;;;;;;;37.55;21.88;;;;;;;7.96;70.28;103117.81;5070381;28;20040;-82
2022/03/22 07:39:06;;;;;;;31.73;18.15;;;;;;;8.03;68.61;103112.69;5067522;28;20047;-82
2022/03/22 07:41:33;;;;;;;37.55;22.58;;;;;;;8.13;69.78;103117.31;5067141;28;20120;-82
2022/03/22 07:44:01;;;;;;;36.08;21.98;;;;;;;8.22;68.99;103111.41;5050836;28;20041;-82
2022/03/22 07:46:27;;;;;;;32.72;20.35;;;;;;;8.32;68.46;103116.91;5051908;28;20489;-82
2022/03/22 07:48:53;;;;;;;40.05;20.58;;;;;;;8.42;68.43;103120.72;5051918;28;20468;-82
2022/03/22 07:54:03;;;;;;;33.97;20.95;;;;;;;8.68;68.99;103117.75;5066883;28;20068;-82
2022/03/22 07:56:32;;;;;;;32.08;20.83;;;;;;;8.78;67.67;103115.38;5070797;28;20093;-82
2022/03/22 07:58:58;;;;;;;30.77;20.90;;;;;;;8.89;67.72;103123.53;5070316;28;20075;-82
2022/03/22 08:01:24;;;;;;;34.00;19.27;;;;;;;8.97;66.63;103116.66;5069955;28;20064;-82
2022/03/22 08:03:51;;;;;;;43.33;21.60;;;;;;;9.10;66.23;103116.91;5069788;28;20029;-82
2022/03/22 08:06:16;;;;;;;40.47;21.27;;;;;;;9.20;66.05;103118.91;5053160;28;20068;-82
2022/03/22 08:08:44;;;;;;;35.55;20.70;;;;;;;9.30;65.04;103119.94;5073451;28;20056;-82
2022/03/22 08:11:11;;;;;;;37.42;20.52;;;;;;;9.40;64.68;103117.53;5081819;28;20033;-81
2022/03/22 08:13:37;;;;;;;35.17;20.83;;;;;;;9.53;64.61;103121.31;5052769;28;20033;-82
2022/03/22 08:16:07;;;;;;;34.92;21.35;;;;;;;9.68;64.43;103118.06;5036262;28;20505;-82
2022/03/22 08:18:33;;;;;;;34.40;21.55;;;;;;;9.82;64.66;103127.13;5072648;28;20051;-82
2022/03/22 08:20:58;;;;;;;38.67;21.25;;;;;;;9.97;64.68;103126.50;5061158;28;20353;-82
2022/03/22 08:23:24;;;;;;;37.65;22.75;;;;;;;10.12;63.50;103121.47;5055681;28;20032;-82
2022/03/22 08:25:51;;;;;;;37.67;21.33;;;;;;;10.27;63.39;103122.59;5072731;28;20055;-82
2022/03/22 08:28:18;;;;;;;36.25;21.98;;;;;;;10.38;62.63;103120.13;5072556;28;20044;-82
2022/03/22 08:30:44;;;;;;;34.83;21.40;;;;;;;10.49;62.53;103115.91;5072727;28;20047;-82
2022/03/22 08:33:11;;;;;;;33.03;21.92;;;;;;;10.66;62.05;103124.09;5072606;28;20028;-82
2022/03/22 08:35:41;;;;;;;35.58;21.48;;;;;;;10.77;61.64;103112.75;5072777;28;20032;-82
2022/03/22 08:38:08;;;;;;;33.60;20.83;;;;;;;10.92;61.47;103119.13;5072443;28;20132;-82
2022/03/22 08:40:34;;;;;;;35.58;22.75;;;;;;;11.09;61.68;103112.28;5091008;28;20107;-82
2022/03/22 08:43:02;;;;;;;36.58;21.70;;;;;;;11.25;61.02;103113.38;5072218;28;20138;-82
2022/03/22 08:45:32;;;;;;;38.22;22.63;;;;;;;11.40;60.95;103115.31;5089395;28;20448;-83
2022/03/22 08:47:59;;;;;;;35.25;22.50;;;;;;;11.51;59.67;103116.31;5040104;28;20499;-83
2022/03/22 08:50:25;;;;;;;40.85;21.80;;;;;;;11.69;59.33;103120.03;5072437;28;20035;-83
2022/03/22 08:52:51;;;;;;;40.22;22.42;;;;;;;11.81;58.65;103115.72;5071953;28;20044;-83
2022/03/22 08:55:18;;;;;;;34.97;22.05;;;;;;;11.97;59.52;103118.56;5090384;28;20100;-83
2022/03/22 08:57:47;;;;;;;40.25;22.05;;;;;;;12.14;58.43;103113.38;5071972;28;20092;-83
2022/03/22 09:00:14;;;;;;;33.10;21.58;;;;;;;12.30;57.75;103112.63;5071877;28;20036;-83
2022/03/22 09:02:43;;;;;;;35.22;22.58;;;;;;;12.44;56.41;103113.63;5055331;28;20066;-83
2022/03/22 09:07:58;;;;;;;33.88;21.17;;;;;;;12.73;56.61;103117.31;5071899;28;20162;-83
2022/03/22 09:10:26;;;;;;;37.10;21.40;;;;;;;12.87;54.82;103118.28;5071785;28;20097;-83
2022/03/22 09:12:52;;;;;;;41.38;22.55;;;;;;;12.98;54.57;103111.25;5090024;28;20035;-83
2022/03/22 09:15:19;;;;;;;35.95;22.15;;;;;;;13.14;54.82;103117.50;5022217;28;20348;-83
2022/03/22 09:17:45;;;;;;;33.78;22.63;;;;;;;13.34;54.93;103121.16;5055224;28;20047;-83
2022/03/22 09:20:14;;;;;;;43.20;27.05;;;;;;;13.43;53.37;103111.44;5071141;28;20067;-83
2022/03/22 09:22:44;;;;;;;52.22;28.77;;;;;;;13.57;53.21;103109.69;5072129;28;20123;-84
2022/03/22 09:25:11;;;;;;;53.65;31.65;;;;;;;13.70;52.63;103102.63;5056008;28;20029;-83
2022/03/22 09:27:43;;;;;;;59.97;27.98;;;;;;;13.82;53.07;103107.94;5055742;28;20053;-83
2022/03/22 09:30:10;;;;;;;48.28;29.25;;;;;;;13.98;52.32;103112.38;5073784;28;20040;-84
2022/03/22 09:32:37;;;;;;;46.55;28.70;;;;;;;14.14;51.72;103112.38;5055870;28;20020;-84
2022/03/22 09:35:09;;;;;;;44.40;25.48;;;;;;;14.23;50.62;103109.72;5055753;28;20052;-84
2022/03/22 09:37:41;;;;;;;35.38;23.13;;;;;;;14.29;50.49;103095.50;5065229;28;20395;-84
2022/03/22 09:40:10;;;;;;;36.83;22.10;;;;;;;14.45;49.71;103104.38;5092469;28;20050;-84
2022/03/22 09:42:38;;;;;;;38.17;23.52;;;;;;;14.58;50.18;103107.00;5075818;28;20525;-84
2022/03/22 09:45:08;;;;;;;38.50;24.58;;;;;;;14.75;49.52;103104.31;5059901;28;20077;-84
2022/03/22 09:47:36;;;;;;;34.50;22.37;;;;;;;14.76;48.64;103106.09;5092525;28;20036;-84
2022/03/22 09:50:03;;;;;;;37.85;22.70;;;;;;;14.81;49.59;103084.72;5058552;28;20343;-83
2022/03/22 09:52:29;;;;;;;37.03;23.05;;;;;;;15.04;48.57;103092.66;5058522;28;20077;-84
2022/03/22 09:54:55;;;;;;;34.33;22.23;;;;;;;15.20;47.02;103101.44;5091680;28;20145;-83
2022/03/22 09:57:21;;;;;;;33.92;22.83;;;;;;;15.23;47.50;103094.34;5074212;28;20146;-84
2022/03/22 09:59:46;;;;;;;34.42;22.02;;;;;;;15.34;46.67;103093.38;5075422;28;20229;-84
2022/03/22 10:02:12;;;;;;;42.45;23.20;;;;;;;15.45;46.57;103096.84;5058612;28;20036;-84
2022/03/22 10:04:42;;;;;;;35.45;22.10;;;;;;;15.57;47.08;103093.22;5074959;28;20380;-84
2022/03/22 10:07:18;;;;;;;42.75;23.58;;;;;;;15.68;45.79;103088.72;5091579;28;20052;-84
2022/03/22 10:09:51;;;;;;;36.10;22.45;;;;;;;15.80;45.63;103088.66;5059616;28;20036;-84
2022/03/22 10:12:43;;;;;;;34.60;21.45;;;;;;;15.99;46.46;103089.38;5093415;28;20412;-84
2022/03/22 10:15:10;;;;;;;41.90;23.20;;;;;;;16.17;43.20;103082.06;5074596;28;20452;-84
2022/03/22 10:17:37;;;;;;;44.17;23.55;;;;;;;16.30;45.08;103081.06;5074897;28;20452;-84
2022/03/22 10:20:05;;;;;;;44.55;23.00;;;;;;;16.43;44.91;103079.16;5074666;28;20036;-83
2022/03/22 10:22:32;;;;;;;35.50;22.00;;;;;;;16.54;42.67;103072.78;5091805;28;20042;-84
2022/03/22 10:24:59;;;;;;;34.30;22.02;;;;;;;16.65;42.45;103066.44;5092282;28;20447;-84
2022/03/22 10:27:26;;;;;;;37.72;23.27;;;;;;;16.73;41.35;103077.91;5093237;28;20032;-84
2022/03/22 10:29:53;;;;;;;38.90;22.70;;;;;;;16.86;41.20;103070.66;5074623;28;20103;-84
2022/03/22 10:32:40;;;;;;;38.88;22.67;;;;;;;17.03;42.81;103073.13;5092274;28;20093;-84
2022/03/22 10:35:23;;;;;;;36.80;23.10;;;;;;;17.17;42.01;103074.69;5091533;28;20044;-84
2022/03/22 10:37:54;;;;;;;36.88;23.95;;;;;;;17.31;41.97;103069.16;5074760;28;20098;-84
2022/03/22 10:40:29;;;;;;;40.75;23.10;;;;;;;17.39;40.25;103069.91;5093149;28;20064;-84
2022/03/22 10:43:00;;;;;;;37.40;23.42;;;;;;;17.51;39.38;103065.28;5092980;28;20122;-84
2022/03/22 10:45:40;;;;;;;41.80;22.95;;;;;;;17.69;39.93;103070.34;5074791;28;20036;-87
2022/03/22 10:48:06;;;;;;;33.03;20.83;;;;;;;17.97;39.39;103061.88;5076290;28;20090;-85
2022/03/22 10:50:37;;;;;;;38.10;22.13;;;;;;;18.21;39.66;103057.88;5092812;28;20493;-79
2022/03/22 10:53:02;;;;;;;40.47;23.42;;;;;;;18.39;38.42;103059.31;5092508;28;20036;-78
2022/03/22 10:55:28;;;;;;;45.15;23.48;;;;;;;18.55;37.95;103055.44;5063486;28;20039;-79
2022/03/22 10:57:56;;;;;;;44.92;23.05;;;;;;;18.47;38.72;103063.63;5072783;28;20021;-86
2022/03/22 11:00:24;;;;;;;38.50;22.92;;;;;;;18.52;38.44;103058.19;5054506;28;20032;-87
2022/03/22 11:02:52;;;;;;;39.05;20.85;;;;;;;18.76;38.64;103054.13;5053787;28;20041;-85
2022/03/22 11:05:19;;;;;;;36.70;21.73;;;;;;;18.96;37.36;103056.38;5037870;28;20128;-84
2022/03/22 11:07:47;;;;;;;33.20;21.08;;;;;;;19.12;37.24;103049.75;5053922;28;20044;-84
2022/03/22 11:10:14;;;;;;;42.63;22.15;;;;;;;19.23;35.35;103051.31;5071179;28;20036;-82
2022/03/22 11:12:40;;;;;;;33.80;21.23;;;;;;;19.36;36.14;103057.28;5053752;28;20040;-83
2022/03/22 11:15:07;;;;;;;32.90;21.15;;;;;;;19.44;35.42;103049.94;5072246;28;20044;-84
2022/03/22 11:17:35;;;;;;;32.65;21.42;;;;;;;19.58;35.50;103050.47;5054223;28;20460;-88
2022/03/22 11:20:07;;;;;;;32.65;20.30;;;;;;;19.67;35.60;103036.84;5052687;28;20051;-87
2022/03/22 11:22:33;;;;;;;39.88;21.17;;;;;;;19.79;33.42;103056.28;5057660;28;20089;-85
2022/03/22 11:25:07;;;;;;;41.28;21.90;;;;;;;20.04;36.03;103043.94;5085642;28;20383;-86
2022/03/22 11:27:32;;;;;;;41.92;21.50;;;;;;;20.35;35.24;103041.31;5072215;28;20031;-83
2022/03/22 11:29:58;;;;;;;41.08;22.85;;;;;;;20.38;34.15;103035.84;5053612;28;20123;-83
2022/03/22 11:35:13;;;;;;;40.50;23.02;;;;;;;20.54;33.15;103040.78;5071372;28;20032;-83
2022/03/22 11:37:40;;;;;;;35.53;21.40;;;;;;;20.62;32.97;103041.47;5069573;28;20043;-84
2022/03/22 11:43:01;;;;;;;35.28;19.65;;;;;;;21.03;32.00;103034.84;5069823;28;20519;-83
2022/03/22 11:45:27;;;;;;;35.40;19.92;;;;;;;21.18;32.21;103033.47;5053647;28;20037;-83